sensor_id;sensor_type;location;lat;lon;timestamp;temperature;humidity
21502;DHT22;27639;48.674;9.242;2023-02-10T00:02:22;1.50;51.70
21502;DHT22;27639;48.674;9.242;2023-02-10T00:04:48;1.40;51.70
21502;DHT22;27639;48.674;9.242;2023-02-10T00:07:13;1.40;51.80
21502;DHT22;27639;48.674;9.242;2023-02-10T00:09:39;1.40;51.80
21502;DHT22;27639;48.674;9.242;2023-02-10T00:12:05;1.30;51.70
21502;DHT22;27639;48.674;9.242;2023-02-10T00:14:33;1.30;51.70
21502;DHT22;27639;48.674;9.242;2023-02-10T00:16:59;1.30;52.40
21502;DHT22;27639;48.674;9.242;2023-02-10T00:19:26;1.20;51.60
21502;DHT22;27639;48.674;9.242;2023-02-10T00:21:52;1.20;51.60
21502;DHT22;27639;48.674;9.242;2023-02-10T00:24:19;1.20;51.70
21502;DHT22;27639;48.674;9.242;2023-02-10T00:26:46;1.20;51.60
21502;DHT22;27639;48.674;9.242;2023-02-10T00:29:12;1.20;51.70
21502;DHT22;27639;48.674;9.242;2023-02-10T00:31:38;1.20;51.80
21502;DHT22;27639;48.674;9.242;2023-02-10T00:34:03;1.20;51.80
21502;DHT22;27639;48.674;9.242;2023-02-10T00:36:29;1.20;51.80
21502;DHT22;27639;48.674;9.242;2023-02-10T00:38:54;1.10;51.70
21502;DHT22;27639;48.674;9.242;2023-02-10T00:41:22;1.10;51.80
21502;DHT22;27639;48.674;9.242;2023-02-10T00:43:47;1.10;51.80
21502;DHT22;27639;48.674;9.242;2023-02-10T00:46:15;1.10;51.80
21502;DHT22;27639;48.674;9.242;2023-02-10T00:48:41;1.10;51.80
21502;DHT22;27639;48.674;9.242;2023-02-10T00:51:08;1.10;51.80
21502;DHT22;27639;48.674;9.242;2023-02-10T00:53:34;1.10;51.80
21502;DHT22;27639;48.674;9.242;2023-02-10T00:56:00;1.00;51.90
21502;DHT22;27639;48.674;9.242;2023-02-10T00:58:26;1.00;51.90
21502;DHT22;27639;48.674;9.242;2023-02-10T01:00:53;1.00;52.00
21502;DHT22;27639;48.674;9.242;2023-02-10T01:03:19;0.90;52.00
21502;DHT22;27639;48.674;9.242;2023-02-10T01:05:45;0.90;52.10
21502;DHT22;27639;48.674;9.242;2023-02-10T01:08:11;0.90;52.20
21502;DHT22;27639;48.674;9.242;2023-02-10T01:10:37;0.80;52.10
21502;DHT22;27639;48.674;9.242;2023-02-10T01:13:07;0.70;52.20
21502;DHT22;27639;48.674;9.242;2023-02-10T01:15:33;0.70;52.20
21502;DHT22;27639;48.674;9.242;2023-02-10T01:17:58;0.70;52.30
21502;DHT22;27639;48.674;9.242;2023-02-10T01:20:25;0.70;52.40
21502;DHT22;27639;48.674;9.242;2023-02-10T01:22:51;0.70;52.40
21502;DHT22;27639;48.674;9.242;2023-02-10T01:25:17;0.70;52.40
21502;DHT22;27639;48.674;9.242;2023-02-10T01:27:42;0.70;52.40
21502;DHT22;27639;48.674;9.242;2023-02-10T01:30:09;0.70;52.40
21502;DHT22;27639;48.674;9.242;2023-02-10T01:32:34;0.70;53.20
21502;DHT22;27639;48.674;9.242;2023-02-10T01:35:00;0.70;52.50
21502;DHT22;27639;48.674;9.242;2023-02-10T01:37:25;0.60;52.50
21502;DHT22;27639;48.674;9.242;2023-02-10T01:39:51;0.50;52.50
21502;DHT22;27639;48.674;9.242;2023-02-10T01:42:17;0.40;52.50
21502;DHT22;27639;48.674;9.242;2023-02-10T01:47:08;0.40;52.60
21502;DHT22;27639;48.674;9.242;2023-02-10T01:49:48;0.40;52.80
21502;DHT22;27639;48.674;9.242;2023-02-10T01:52:24;0.40;52.80
21502;DHT22;27639;48.674;9.242;2023-02-10T01:54:59;0.40;52.80
21502;DHT22;27639;48.674;9.242;2023-02-10T01:57:26;0.30;52.70
21502;DHT22;27639;48.674;9.242;2023-02-10T01:59:51;0.30;52.80
21502;DHT22;27639;48.674;9.242;2023-02-10T02:02:18;0.40;52.90
21502;DHT22;27639;48.674;9.242;2023-02-10T02:07:12;0.30;52.80
21502;DHT22;27639;48.674;9.242;2023-02-10T02:09:39;0.30;52.70
21502;DHT22;27639;48.674;9.242;2023-02-10T02:17:56;0.30;52.80
21502;DHT22;27639;48.674;9.242;2023-02-10T02:37:21;0.10;53.20
21502;DHT22;27639;48.674;9.242;2023-02-10T02:39:52;0.10;53.20
21502;DHT22;27639;48.674;9.242;2023-02-10T02:42:26;0.10;53.20
21502;DHT22;27639;48.674;9.242;2023-02-10T02:51:03;0.00;53.10
21502;DHT22;27639;48.674;9.242;2023-02-10T02:56:33;0.00;53.10
21502;DHT22;27639;48.674;9.242;2023-02-10T02:59:03;0.00;53.10
21502;DHT22;27639;48.674;9.242;2023-02-10T03:01:53;0.00;53.10
21502;DHT22;27639;48.674;9.242;2023-02-10T03:04:20;0.00;53.10
21502;DHT22;27639;48.674;9.242;2023-02-10T03:06:46;0.00;53.20
21502;DHT22;27639;48.674;9.242;2023-02-10T03:09:12;0.00;53.10
21502;DHT22;27639;48.674;9.242;2023-02-10T03:11:39;-0.10;53.00
21502;DHT22;27639;48.674;9.242;2023-02-10T03:14:04;-0.10;53.00
21502;DHT22;27639;48.674;9.242;2023-02-10T03:16:30;-0.10;53.10
21502;DHT22;27639;48.674;9.242;2023-02-10T03:18:56;-0.20;53.00
21502;DHT22;27639;48.674;9.242;2023-02-10T03:21:21;-0.20;53.10
21502;DHT22;27639;48.674;9.242;2023-02-10T03:23:47;-0.20;53.20
21502;DHT22;27639;48.674;9.242;2023-02-10T03:26:12;-0.20;53.20
21502;DHT22;27639;48.674;9.242;2023-02-10T03:28:38;-0.20;53.20
21502;DHT22;27639;48.674;9.242;2023-02-10T03:31:05;-0.20;53.20
21502;DHT22;27639;48.674;9.242;2023-02-10T03:33:31;-0.20;53.20
21502;DHT22;27639;48.674;9.242;2023-02-10T03:35:57;-0.20;53.20
21502;DHT22;27639;48.674;9.242;2023-02-10T03:38:23;-0.20;53.30
21502;DHT22;27639;48.674;9.242;2023-02-10T03:40:50;-0.20;53.30
21502;DHT22;27639;48.674;9.242;2023-02-10T03:43:17;-0.10;53.30
21502;DHT22;27639;48.674;9.242;2023-02-10T03:45:42;-0.10;53.30
21502;DHT22;27639;48.674;9.242;2023-02-10T03:48:08;-0.20;53.00
21502;DHT22;27639;48.674;9.242;2023-02-10T03:50:34;-0.20;53.10
21502;DHT22;27639;48.674;9.242;2023-02-10T03:53:00;-0.10;53.10
21502;DHT22;27639;48.674;9.242;2023-02-10T03:55:25;-0.20;53.00
21502;DHT22;27639;48.674;9.242;2023-02-10T03:57:51;-0.20;53.00
21502;DHT22;27639;48.674;9.242;2023-02-10T04:00:17;-0.20;53.00
21502;DHT22;27639;48.674;9.242;2023-02-10T04:02:43;-0.30;53.00
21502;DHT22;27639;48.674;9.242;2023-02-10T04:05:08;-0.30;53.10
21502;DHT22;27639;48.674;9.242;2023-02-10T04:07:34;-0.30;53.10
21502;DHT22;27639;48.674;9.242;2023-02-10T04:10:00;-0.20;53.10
21502;DHT22;27639;48.674;9.242;2023-02-10T04:12:25;-0.30;53.00
21502;DHT22;27639;48.674;9.242;2023-02-10T04:14:51;-0.30;53.00
21502;DHT22;27639;48.674;9.242;2023-02-10T04:17:16;-0.30;53.00
21502;DHT22;27639;48.674;9.242;2023-02-10T04:19:42;-0.30;53.00
21502;DHT22;27639;48.674;9.242;2023-02-10T04:22:08;-0.30;53.10
21502;DHT22;27639;48.674;9.242;2023-02-10T04:24:33;-0.30;53.10
21502;DHT22;27639;48.674;9.242;2023-02-10T04:26:59;-0.30;53.00
21502;DHT22;27639;48.674;9.242;2023-02-10T04:29:24;-0.30;53.10
21502;DHT22;27639;48.674;9.242;2023-02-10T04:31:50;-0.30;53.20
21502;DHT22;27639;48.674;9.242;2023-02-10T04:34:16;-0.40;53.10
21502;DHT22;27639;48.674;9.242;2023-02-10T04:36:41;-0.50;53.10
21502;DHT22;27639;48.674;9.242;2023-02-10T04:39:07;-0.50;53.10
21502;DHT22;27639;48.674;9.242;2023-02-10T04:41:32;-0.60;53.10
21502;DHT22;27639;48.674;9.242;2023-02-10T04:43:58;-0.60;53.20
21502;DHT22;27639;48.674;9.242;2023-02-10T04:46:23;-0.60;53.90
21502;DHT22;27639;48.674;9.242;2023-02-10T04:48:49;-0.60;53.30
21502;DHT22;27639;48.674;9.242;2023-02-10T04:51:15;-0.60;53.30
21502;DHT22;27639;48.674;9.242;2023-02-10T04:53:41;-0.60;53.30
21502;DHT22;27639;48.674;9.242;2023-02-10T04:56:09;-0.60;53.30
21502;DHT22;27639;48.674;9.242;2023-02-10T04:58:35;-0.70;53.30
21502;DHT22;27639;48.674;9.242;2023-02-10T05:01:00;-0.70;53.30
21502;DHT22;27639;48.674;9.242;2023-02-10T05:03:26;-0.70;53.30
21502;DHT22;27639;48.674;9.242;2023-02-10T05:05:51;-0.80;53.20
21502;DHT22;27639;48.674;9.242;2023-02-10T05:08:18;-0.80;53.30
21502;DHT22;27639;48.674;9.242;2023-02-10T05:10:47;-0.80;53.30
21502;DHT22;27639;48.674;9.242;2023-02-10T05:13:13;-0.80;53.40
21502;DHT22;27639;48.674;9.242;2023-02-10T05:15:38;-0.90;53.30
21502;DHT22;27639;48.674;9.242;2023-02-10T05:18:04;-0.80;53.40
21502;DHT22;27639;48.674;9.242;2023-02-10T05:20:29;-0.80;53.40
21502;DHT22;27639;48.674;9.242;2023-02-10T05:22:55;-0.80;53.50
21502;DHT22;27639;48.674;9.242;2023-02-10T05:25:21;-0.90;53.50
21502;DHT22;27639;48.674;9.242;2023-02-10T05:27:46;-0.80;53.50
21502;DHT22;27639;48.674;9.242;2023-02-10T05:30:12;-0.80;53.50
21502;DHT22;27639;48.674;9.242;2023-02-10T05:32:39;-0.90;53.40
21502;DHT22;27639;48.674;9.242;2023-02-10T05:35:05;-0.90;53.40
21502;DHT22;27639;48.674;9.242;2023-02-10T05:37:30;-0.90;53.40
21502;DHT22;27639;48.674;9.242;2023-02-10T05:39:56;-0.90;54.10
21502;DHT22;27639;48.674;9.242;2023-02-10T05:42:22;-1.00;53.30
21502;DHT22;27639;48.674;9.242;2023-02-10T05:44:47;-1.00;53.40
21502;DHT22;27639;48.674;9.242;2023-02-10T05:47:13;-1.00;53.50
21502;DHT22;27639;48.674;9.242;2023-02-10T05:49:38;-1.00;53.50
21502;DHT22;27639;48.674;9.242;2023-02-10T05:52:04;-1.00;53.40
21502;DHT22;27639;48.674;9.242;2023-02-10T05:54:29;-1.00;53.30
21502;DHT22;27639;48.674;9.242;2023-02-10T05:56:55;-1.00;53.30
21502;DHT22;27639;48.674;9.242;2023-02-10T05:59:21;-1.00;53.30
21502;DHT22;27639;48.674;9.242;2023-02-10T06:01:47;-1.00;53.30
21502;DHT22;27639;48.674;9.242;2023-02-10T06:04:13;-1.00;53.40
21502;DHT22;27639;48.674;9.242;2023-02-10T06:06:38;-1.10;53.40
21502;DHT22;27639;48.674;9.242;2023-02-10T06:09:04;-1.00;53.50
21502;DHT22;27639;48.674;9.242;2023-02-10T06:11:29;-1.10;53.40
21502;DHT22;27639;48.674;9.242;2023-02-10T06:13:55;-1.10;53.40
21502;DHT22;27639;48.674;9.242;2023-02-10T06:16:21;-1.10;53.40
21502;DHT22;27639;48.674;9.242;2023-02-10T06:18:46;-1.10;53.40
21502;DHT22;27639;48.674;9.242;2023-02-10T06:21:14;-1.10;53.40
21502;DHT22;27639;48.674;9.242;2023-02-10T06:23:40;-1.10;53.50
21502;DHT22;27639;48.674;9.242;2023-02-10T06:26:05;-1.10;53.40
21502;DHT22;27639;48.674;9.242;2023-02-10T06:28:31;-1.10;53.40
21502;DHT22;27639;48.674;9.242;2023-02-10T06:30:57;-1.10;53.40
21502;DHT22;27639;48.674;9.242;2023-02-10T06:33:22;-1.10;53.40
21502;DHT22;27639;48.674;9.242;2023-02-10T06:35:48;-1.20;53.40
21502;DHT22;27639;48.674;9.242;2023-02-10T06:38:15;-1.20;53.40
21502;DHT22;27639;48.674;9.242;2023-02-10T06:40:41;-1.20;53.40
21502;DHT22;27639;48.674;9.242;2023-02-10T06:43:07;-1.20;53.50
21502;DHT22;27639;48.674;9.242;2023-02-10T06:45:32;-1.30;53.40
21502;DHT22;27639;48.674;9.242;2023-02-10T06:47:58;-1.20;53.50
21502;DHT22;27639;48.674;9.242;2023-02-10T06:50:24;-1.20;53.50
21502;DHT22;27639;48.674;9.242;2023-02-10T06:52:50;-1.20;53.50
21502;DHT22;27639;48.674;9.242;2023-02-10T06:55:15;-1.20;53.60
21502;DHT22;27639;48.674;9.242;2023-02-10T06:57:41;-1.20;53.60
21502;DHT22;27639;48.674;9.242;2023-02-10T07:00:09;-1.30;53.60
21502;DHT22;27639;48.674;9.242;2023-02-10T07:02:36;-1.20;53.70
21502;DHT22;27639;48.674;9.242;2023-02-10T07:05:03;-1.20;53.70
21502;DHT22;27639;48.674;9.242;2023-02-10T07:07:31;-1.30;53.70
21502;DHT22;27639;48.674;9.242;2023-02-10T07:09:57;-1.20;53.90
21502;DHT22;27639;48.674;9.242;2023-02-10T07:12:22;-1.20;53.90
21502;DHT22;27639;48.674;9.242;2023-02-10T07:14:50;-1.20;53.90
21502;DHT22;27639;48.674;9.242;2023-02-10T07:17:16;-1.20;54.00
21502;DHT22;27639;48.674;9.242;2023-02-10T07:19:42;-1.20;54.00
21502;DHT22;27639;48.674;9.242;2023-02-10T07:22:08;-1.20;54.10
21502;DHT22;27639;48.674;9.242;2023-02-10T07:24:34;-1.20;54.10
21502;DHT22;27639;48.674;9.242;2023-02-10T07:26:59;-1.20;54.20
21502;DHT22;27639;48.674;9.242;2023-02-10T07:29:25;-1.20;54.30
21502;DHT22;27639;48.674;9.242;2023-02-10T07:31:51;-1.20;54.50
21502;DHT22;27639;48.674;9.242;2023-02-10T07:34:16;-1.10;54.60
21502;DHT22;27639;48.674;9.242;2023-02-10T07:36:45;-1.10;54.60
21502;DHT22;27639;48.674;9.242;2023-02-10T07:39:10;-1.10;54.60
21502;DHT22;27639;48.674;9.242;2023-02-10T07:41:36;-1.10;54.70
21502;DHT22;27639;48.674;9.242;2023-02-10T07:44:02;-1.00;54.80
21502;DHT22;27639;48.674;9.242;2023-02-10T07:46:28;-0.90;54.90
21502;DHT22;27639;48.674;9.242;2023-02-10T07:48:53;-0.90;55.50
21502;DHT22;27639;48.674;9.242;2023-02-10T07:51:19;-0.80;54.90
21502;DHT22;27639;48.674;9.242;2023-02-10T07:53:44;-0.80;54.90
21502;DHT22;27639;48.674;9.242;2023-02-10T07:56:10;-0.70;55.00
21502;DHT22;27639;48.674;9.242;2023-02-10T07:58:36;-0.60;55.10
21502;DHT22;27639;48.674;9.242;2023-02-10T08:01:10;-0.60;55.00
21502;DHT22;27639;48.674;9.242;2023-02-10T08:03:35;-0.50;55.10
21502;DHT22;27639;48.674;9.242;2023-02-10T08:06:02;-0.40;55.20
21502;DHT22;27639;48.674;9.242;2023-02-10T08:08:27;-0.40;55.20
21502;DHT22;27639;48.674;9.242;2023-02-10T08:10:53;-0.40;55.20
21502;DHT22;27639;48.674;9.242;2023-02-10T08:13:18;-0.30;55.30
21502;DHT22;27639;48.674;9.242;2023-02-10T08:15:44;-0.20;55.30
21502;DHT22;27639;48.674;9.242;2023-02-10T08:18:10;0.00;55.40
21502;DHT22;27639;48.674;9.242;2023-02-10T08:20:35;0.00;55.30
21502;DHT22;27639;48.674;9.242;2023-02-10T08:23:01;0.10;55.20
21502;DHT22;27639;48.674;9.242;2023-02-10T08:25:27;0.20;55.10
21502;DHT22;27639;48.674;9.242;2023-02-10T08:27:52;0.30;55.10
21502;DHT22;27639;48.674;9.242;2023-02-10T08:30:18;0.30;55.20
21502;DHT22;27639;48.674;9.242;2023-02-10T08:32:44;0.40;55.20
21502;DHT22;27639;48.674;9.242;2023-02-10T08:35:10;0.50;55.30
21502;DHT22;27639;48.674;9.242;2023-02-10T08:37:35;0.60;55.30
21502;DHT22;27639;48.674;9.242;2023-02-10T08:40:02;0.60;55.30
21502;DHT22;27639;48.674;9.242;2023-02-10T08:42:30;0.70;55.30
21502;DHT22;27639;48.674;9.242;2023-02-10T08:44:55;0.80;55.10
21502;DHT22;27639;48.674;9.242;2023-02-10T08:47:21;0.80;55.40
21502;DHT22;27639;48.674;9.242;2023-02-10T08:49:46;0.80;55.60
21502;DHT22;27639;48.674;9.242;2023-02-10T08:52:12;0.90;55.90
21502;DHT22;27639;48.674;9.242;2023-02-10T08:54:37;0.90;56.20
21502;DHT22;27639;48.674;9.242;2023-02-10T08:57:03;1.00;56.30
21502;DHT22;27639;48.674;9.242;2023-02-10T08:59:29;1.10;56.40
21502;DHT22;27639;48.674;9.242;2023-02-10T09:01:54;1.20;56.40
21502;DHT22;27639;48.674;9.242;2023-02-10T09:04:20;1.30;56.50
21502;DHT22;27639;48.674;9.242;2023-02-10T09:06:46;1.50;56.60
21502;DHT22;27639;48.674;9.242;2023-02-10T09:09:18;1.60;56.50
21502;DHT22;27639;48.674;9.242;2023-02-10T09:11:50;1.80;56.80
21502;DHT22;27639;48.674;9.242;2023-02-10T09:14:16;1.90;56.90
21502;DHT22;27639;48.674;9.242;2023-02-10T09:16:42;2.10;57.50
21502;DHT22;27639;48.674;9.242;2023-02-10T09:19:08;2.30;57.00
21502;DHT22;27639;48.674;9.242;2023-02-10T09:21:34;2.50;56.90
21502;DHT22;27639;48.674;9.242;2023-02-10T09:24:00;2.60;57.10
21502;DHT22;27639;48.674;9.242;2023-02-10T09:26:25;2.80;57.10
21502;DHT22;27639;48.674;9.242;2023-02-10T09:28:51;3.00;56.90
21502;DHT22;27639;48.674;9.242;2023-02-10T09:31:16;3.10;56.60
21502;DHT22;27639;48.674;9.242;2023-02-10T09:33:43;3.30;56.60
21502;DHT22;27639;48.674;9.242;2023-02-10T09:36:16;3.50;56.20
21502;DHT22;27639;48.674;9.242;2023-02-10T09:38:42;3.60;56.30
21502;DHT22;27639;48.674;9.242;2023-02-10T09:52:07;4.60;55.80
21502;DHT22;27639;48.674;9.242;2023-02-10T09:54:38;4.80;55.60
21502;DHT22;27639;48.674;9.242;2023-02-10T09:57:07;5.00;55.60
21502;DHT22;27639;48.674;9.242;2023-02-10T09:59:35;5.10;55.30
21502;DHT22;27639;48.674;9.242;2023-02-10T10:02:11;5.30;54.90
21502;DHT22;27639;48.674;9.242;2023-02-10T10:04:38;5.40;54.80
21502;DHT22;27639;48.674;9.242;2023-02-10T10:07:34;5.60;54.60
21502;DHT22;27639;48.674;9.242;2023-02-10T10:10:11;5.80;54.30
21502;DHT22;27639;48.674;9.242;2023-02-10T10:12:38;5.80;53.90
21502;DHT22;27639;48.674;9.242;2023-02-10T10:15:06;5.90;53.90
21502;DHT22;27639;48.674;9.242;2023-02-10T10:17:58;6.00;53.80
21502;DHT22;27639;48.674;9.242;2023-02-10T10:31:13;6.70;53.00
21502;DHT22;27639;48.674;9.242;2023-02-10T10:36:23;7.00;52.30
21502;DHT22;27639;48.674;9.242;2023-02-10T10:38:54;7.10;52.40
21502;DHT22;27639;48.674;9.242;2023-02-10T10:41:23;7.20;52.10
21502;DHT22;27639;48.674;9.242;2023-02-10T10:43:52;7.30;51.80
21502;DHT22;27639;48.674;9.242;2023-02-10T10:48:50;7.50;51.60
21502;DHT22;27639;48.674;9.242;2023-02-10T10:51:16;7.70;51.30
21502;DHT22;27639;48.674;9.242;2023-02-10T10:53:51;7.70;51.00
21502;DHT22;27639;48.674;9.242;2023-02-10T10:58:51;8.00;50.70
21502;DHT22;27639;48.674;9.242;2023-02-10T11:06:34;8.20;50.40
21502;DHT22;27639;48.674;9.242;2023-02-10T11:09:01;8.30;49.80
21502;DHT22;27639;48.674;9.242;2023-02-10T11:11:36;8.30;49.70
21502;DHT22;27639;48.674;9.242;2023-02-10T11:14:03;8.50;49.30
21502;DHT22;27639;48.674;9.242;2023-02-10T11:16:43;8.60;48.70
21502;DHT22;27639;48.674;9.242;2023-02-10T11:19:27;8.70;48.70
21502;DHT22;27639;48.674;9.242;2023-02-10T11:21:53;8.70;48.10
21502;DHT22;27639;48.674;9.242;2023-02-10T11:24:29;8.80;48.00
21502;DHT22;27639;48.674;9.242;2023-02-10T11:27:04;8.90;47.70
21502;DHT22;27639;48.674;9.242;2023-02-10T11:29:32;8.90;47.30
21502;DHT22;27639;48.674;9.242;2023-02-10T11:31:58;8.90;46.60
21502;DHT22;27639;48.674;9.242;2023-02-10T11:34:31;8.80;46.90
21502;DHT22;27639;48.674;9.242;2023-02-10T11:36:59;8.80;47.00
21502;DHT22;27639;48.674;9.242;2023-02-10T11:39:36;8.90;47.20
21502;DHT22;27639;48.674;9.242;2023-02-10T11:42:11;8.90;47.20
21502;DHT22;27639;48.674;9.242;2023-02-10T11:44:41;9.00;47.20
21502;DHT22;27639;48.674;9.242;2023-02-10T11:47:15;9.10;47.30
21502;DHT22;27639;48.674;9.242;2023-02-10T11:49:46;9.30;46.90
21502;DHT22;27639;48.674;9.242;2023-02-10T11:52:13;9.40;45.70
21502;DHT22;27639;48.674;9.242;2023-02-10T11:54:39;9.50;45.80
21502;DHT22;27639;48.674;9.242;2023-02-10T12:09:22;9.60;43.30
21502;DHT22;27639;48.674;9.242;2023-02-10T12:19:59;10.00;42.10
21502;DHT22;27639;48.674;9.242;2023-02-10T12:34:31;10.10;39.60
21502;DHT22;27639;48.674;9.242;2023-02-10T12:45:44;10.20;40.10
21502;DHT22;27639;48.674;9.242;2023-02-10T12:53:59;10.50;39.50
21502;DHT22;27639;48.674;9.242;2023-02-10T12:56:34;10.40;39.20
21502;DHT22;27639;48.674;9.242;2023-02-10T12:59:08;10.50;39.40
21502;DHT22;27639;48.674;9.242;2023-02-10T13:01:45;10.70;39.30
21502;DHT22;27639;48.674;9.242;2023-02-10T13:04:32;10.70;39.10
21502;DHT22;27639;48.674;9.242;2023-02-10T13:07:04;10.70;39.00
21502;DHT22;27639;48.674;9.242;2023-02-10T13:09:39;10.90;38.60
21502;DHT22;27639;48.674;9.242;2023-02-10T13:12:30;10.90;38.40
21502;DHT22;27639;48.674;9.242;2023-02-10T13:15:23;10.90;38.00
21502;DHT22;27639;48.674;9.242;2023-02-10T13:17:51;10.80;38.30
21502;DHT22;27639;48.674;9.242;2023-02-10T13:21:06;10.90;38.40
21502;DHT22;27639;48.674;9.242;2023-02-10T13:24:24;10.90;38.30
21502;DHT22;27639;48.674;9.242;2023-02-10T13:29:44;11.00;38.60
21502;DHT22;27639;48.674;9.242;2023-02-10T13:34:58;11.00;38.40
21502;DHT22;27639;48.674;9.242;2023-02-10T13:38:08;11.00;38.40
21502;DHT22;27639;48.674;9.242;2023-02-10T13:40:51;11.10;38.00
21502;DHT22;27639;48.674;9.242;2023-02-10T13:43:32;11.00;38.20
21502;DHT22;27639;48.674;9.242;2023-02-10T13:45:59;11.00;38.20
21502;DHT22;27639;48.674;9.242;2023-02-10T13:48:34;11.10;38.30
21502;DHT22;27639;48.674;9.242;2023-02-10T13:51:04;11.10;38.10
21502;DHT22;27639;48.674;9.242;2023-02-10T14:01:35;11.10;37.10
21502;DHT22;27639;48.674;9.242;2023-02-10T14:04:07;11.10;37.50
21502;DHT22;27639;48.674;9.242;2023-02-10T14:06:52;11.10;37.70
21502;DHT22;27639;48.674;9.242;2023-02-10T14:11:57;11.10;37.60
21502;DHT22;27639;48.674;9.242;2023-02-10T14:14:34;11.00;37.50
21502;DHT22;27639;48.674;9.242;2023-02-10T14:19:42;10.90;37.10
21502;DHT22;27639;48.674;9.242;2023-02-10T14:22:33;10.80;37.50
21502;DHT22;27639;48.674;9.242;2023-02-10T14:27:40;10.80;37.80
21502;DHT22;27639;48.674;9.242;2023-02-10T14:30:18;10.90;37.80
21502;DHT22;27639;48.674;9.242;2023-02-10T14:32:45;10.80;37.70
21502;DHT22;27639;48.674;9.242;2023-02-10T14:35:20;10.80;37.70
21502;DHT22;27639;48.674;9.242;2023-02-10T14:37:51;10.90;37.50
21502;DHT22;27639;48.674;9.242;2023-02-10T14:40:19;10.80;37.40
21502;DHT22;27639;48.674;9.242;2023-02-10T14:42:45;10.70;37.60
21502;DHT22;27639;48.674;9.242;2023-02-10T14:45:28;10.70;37.60
21502;DHT22;27639;48.674;9.242;2023-02-10T14:47:55;10.60;37.50
21502;DHT22;27639;48.674;9.242;2023-02-10T14:50:36;10.60;37.70
21502;DHT22;27639;48.674;9.242;2023-02-10T14:53:04;10.60;37.30
21502;DHT22;27639;48.674;9.242;2023-02-10T14:55:34;10.60;37.70
21502;DHT22;27639;48.674;9.242;2023-02-10T14:58:11;10.60;37.70
21502;DHT22;27639;48.674;9.242;2023-02-10T15:00:39;10.60;37.50
21502;DHT22;27639;48.674;9.242;2023-02-10T15:03:05;10.60;37.60
21502;DHT22;27639;48.674;9.242;2023-02-10T15:05:39;10.60;37.50
21502;DHT22;27639;48.674;9.242;2023-02-10T15:08:16;10.70;36.90
21502;DHT22;27639;48.674;9.242;2023-02-10T15:10:47;10.60;36.60
21502;DHT22;27639;48.674;9.242;2023-02-10T15:13:18;10.60;36.70
21502;DHT22;27639;48.674;9.242;2023-02-10T15:15:48;10.60;36.60
21502;DHT22;27639;48.674;9.242;2023-02-10T15:20:53;10.50;36.20
21502;DHT22;27639;48.674;9.242;2023-02-10T15:23:19;10.50;35.70
21502;DHT22;27639;48.674;9.242;2023-02-10T15:25:44;10.40;35.70
21502;DHT22;27639;48.674;9.242;2023-02-10T15:33:22;10.30;36.30
21502;DHT22;27639;48.674;9.242;2023-02-10T15:41:35;10.10;36.60
21502;DHT22;27639;48.674;9.242;2023-02-10T15:44:03;10.10;36.40
21502;DHT22;27639;48.674;9.242;2023-02-10T15:46:30;10.10;36.40
21502;DHT22;27639;48.674;9.242;2023-02-10T15:49:06;10.00;36.30
21502;DHT22;27639;48.674;9.242;2023-02-10T15:51:38;10.00;36.40
21502;DHT22;27639;48.674;9.242;2023-02-10T15:54:04;9.90;37.40
21502;DHT22;27639;48.674;9.242;2023-02-10T15:56:30;9.90;37.50
21502;DHT22;27639;48.674;9.242;2023-02-10T15:58:56;9.80;37.70
21502;DHT22;27639;48.674;9.242;2023-02-10T16:01:21;9.70;37.70
21502;DHT22;27639;48.674;9.242;2023-02-10T16:03:47;9.60;37.80
21502;DHT22;27639;48.674;9.242;2023-02-10T16:06:14;9.50;38.00
21502;DHT22;27639;48.674;9.242;2023-02-10T16:08:42;9.40;38.10
21502;DHT22;27639;48.674;9.242;2023-02-10T16:11:10;9.30;38.30
21502;DHT22;27639;48.674;9.242;2023-02-10T16:13:36;9.20;38.60
21502;DHT22;27639;48.674;9.242;2023-02-10T16:16:02;9.10;38.60
21502;DHT22;27639;48.674;9.242;2023-02-10T16:18:28;9.00;38.90
21502;DHT22;27639;48.674;9.242;2023-02-10T16:20:55;8.90;39.00
21502;DHT22;27639;48.674;9.242;2023-02-10T16:23:21;8.90;39.10
21502;DHT22;27639;48.674;9.242;2023-02-10T16:25:47;8.80;39.30
21502;DHT22;27639;48.674;9.242;2023-02-10T16:28:15;8.60;39.30
21502;DHT22;27639;48.674;9.242;2023-02-10T16:30:41;8.50;39.50
21502;DHT22;27639;48.674;9.242;2023-02-10T16:33:07;8.40;39.70
21502;DHT22;27639;48.674;9.242;2023-02-10T16:35:33;8.20;39.70
21502;DHT22;27639;48.674;9.242;2023-02-10T16:37:59;8.10;40.10
21502;DHT22;27639;48.674;9.242;2023-02-10T16:40:28;8.00;40.30
21502;DHT22;27639;48.674;9.242;2023-02-10T16:42:54;7.90;40.40
21502;DHT22;27639;48.674;9.242;2023-02-10T16:45:22;7.70;40.60
21502;DHT22;27639;48.674;9.242;2023-02-10T16:47:47;7.60;40.70
21502;DHT22;27639;48.674;9.242;2023-02-10T16:52:44;7.50;41.00
21502;DHT22;27639;48.674;9.242;2023-02-10T16:55:10;7.30;41.00
21502;DHT22;27639;48.674;9.242;2023-02-10T16:57:36;7.30;41.20
21502;DHT22;27639;48.674;9.242;2023-02-10T17:00:02;7.20;41.50
21502;DHT22;27639;48.674;9.242;2023-02-10T17:02:29;7.20;41.50
21502;DHT22;27639;48.674;9.242;2023-02-10T17:04:54;7.10;41.70
21502;DHT22;27639;48.674;9.242;2023-02-10T17:07:20;7.00;41.90
21502;DHT22;27639;48.674;9.242;2023-02-10T17:09:45;6.90;42.00
21502;DHT22;27639;48.674;9.242;2023-02-10T17:12:12;6.80;42.20
21502;DHT22;27639;48.674;9.242;2023-02-10T17:14:37;6.70;42.40
21502;DHT22;27639;48.674;9.242;2023-02-10T17:17:03;6.70;42.70
21502;DHT22;27639;48.674;9.242;2023-02-10T17:19:29;6.70;42.80
21502;DHT22;27639;48.674;9.242;2023-02-10T17:21:57;6.60;43.00
21502;DHT22;27639;48.674;9.242;2023-02-10T17:24:23;6.50;43.00
21502;DHT22;27639;48.674;9.242;2023-02-10T17:26:48;6.50;43.10
21502;DHT22;27639;48.674;9.242;2023-02-10T17:29:16;6.50;43.30
21502;DHT22;27639;48.674;9.242;2023-02-10T17:31:42;6.40;43.40
21502;DHT22;27639;48.674;9.242;2023-02-10T17:34:09;6.40;43.40
21502;DHT22;27639;48.674;9.242;2023-02-10T17:36:34;6.40;43.60
21502;DHT22;27639;48.674;9.242;2023-02-10T17:39:00;6.40;43.70
21502;DHT22;27639;48.674;9.242;2023-02-10T17:41:29;6.30;43.80
21502;DHT22;27639;48.674;9.242;2023-02-10T17:43:56;6.30;43.90
21502;DHT22;27639;48.674;9.242;2023-02-10T17:46:23;6.20;44.10
21502;DHT22;27639;48.674;9.242;2023-02-10T17:48:49;6.00;44.30
21502;DHT22;27639;48.674;9.242;2023-02-10T17:51:18;5.90;44.30
21502;DHT22;27639;48.674;9.242;2023-02-10T17:53:46;5.90;44.50
21502;DHT22;27639;48.674;9.242;2023-02-10T17:56:14;5.90;44.50
21502;DHT22;27639;48.674;9.242;2023-02-10T17:58:39;5.90;44.60
21502;DHT22;27639;48.674;9.242;2023-02-10T18:01:05;5.80;44.60
21502;DHT22;27639;48.674;9.242;2023-02-10T18:03:31;5.80;44.80
21502;DHT22;27639;48.674;9.242;2023-02-10T18:05:57;5.80;44.80
21502;DHT22;27639;48.674;9.242;2023-02-10T18:08:26;5.70;44.90
21502;DHT22;27639;48.674;9.242;2023-02-10T18:10:52;5.70;45.10
21502;DHT22;27639;48.674;9.242;2023-02-10T18:13:18;5.60;45.10
21502;DHT22;27639;48.674;9.242;2023-02-10T18:15:44;5.60;45.30
21502;DHT22;27639;48.674;9.242;2023-02-10T18:18:10;5.50;45.20
21502;DHT22;27639;48.674;9.242;2023-02-10T18:20:36;5.50;45.30